»·PEaware :: N454FX KLAX-KSNA

N454FX :: KLAX-KSNA

FLIGHT INFORMATION

Flight Status: Arrived
Operator: Privately registered:
United States
More flights under this callsign
Pilot: Mike V. (15104)
Aircraft: CESSNA 180 SKYWAGON
(C180)
More flights by this aircraft type
Origin: KLAX Los Angeles Intl
United States
Destination: KSNA John Wayne-Orange Co
United States
More flights between these airports :: More routes between these airports
Route: +SLI8 SLI
File this flight plan on PilotEdge
Remarks: TEC route LAXP55
Altitude:
(Current/Filed)
4,000ft
Speed:
(Current/Filed)
150kts
Departed: 28-Nov-18 10:33 AM
Arrived: 28-Nov-18 11:28 AM
Distance/Time
Traveled:
31nm/0:55
Distance/Time
To Go:
Arrived

Flight Plot

Page will automatically refresh every two minutes.

Flight plan parsing failed; only flown route is shown


Map Options




Map Legend


Flown Route
Filed Route
Departure Airport
Arrival Airport
Navaid (VOR, NDB)
Fix

Horizontal Profiles

Position Reports

Time Latitude Longitude Heading Altitude Ground
Speed
28-Nov-18 10:12 33.933291 -118.404309 355 116ft 0kts
28-Nov-18 10:13 33.933291 -118.404309 355 116ft 0kts
28-Nov-18 10:14 33.933291 -118.404309 355 116ft 0kts
28-Nov-18 10:15 33.933291 -118.404309 355 116ft 0kts
28-Nov-18 10:16 33.933291 -118.404309 355 116ft 0kts
28-Nov-18 10:17 33.933291 -118.404309 355 116ft 0kts
28-Nov-18 10:18 33.933291 -118.404309 355 116ft 0kts
28-Nov-18 10:19 33.933291 -118.404309 355 116ft 0kts
28-Nov-18 10:20 33.933291 -118.404309 355 116ft 0kts
28-Nov-18 10:21 33.933291 -118.404309 355 116ft 0kts
28-Nov-18 10:22 33.933291 -118.404309 355 116ft 0kts
28-Nov-18 10:23 33.933291 -118.404309 355 116ft 0kts
28-Nov-18 10:24 33.933291 -118.404309 355 116ft 0kts
28-Nov-18 10:25 33.933291 -118.404309 355 116ft 0kts
28-Nov-18 10:26 33.933291 -118.404309 355 116ft 0kts
28-Nov-18 10:27 33.933291 -118.404309 355 116ft 0kts
28-Nov-18 10:28 33.933291 -118.404309 355 116ft 0kts
28-Nov-18 10:29 33.933291 -118.404309 355 116ft 0kts
28-Nov-18 10:30 33.933327 -118.404311 357 116ft 3kts
28-Nov-18 10:31 33.934355 -118.400094 81 113ft 16kts
28-Nov-18 10:32 33.935214 -118.391586 82 101ft 20kts
28-Nov-18 10:33 33.935433 -118.390722 343 101ft 1kts
28-Nov-18 10:34 33.935712 -118.390853 330 101ft 0kts
28-Nov-18 10:35 33.935712 -118.390853 330 101ft 0kts
28-Nov-18 10:36 33.936298 -118.393225 264 101ft 44kts
28-Nov-18 10:37 33.932825 -118.420539 260 787ft 88kts
28-Nov-18 10:38 33.924582 -118.444274 204 1819ft 69kts
28-Nov-18 10:39 33.907059 -118.448710 169 2663ft 66kts
28-Nov-18 10:40 33.888408 -118.445108 167 3456ft 65kts
28-Nov-18 10:41 33.868444 -118.440781 168 3983ft 80kts
28-Nov-18 10:42 33.843852 -118.435992 171 4021ft 91kts
28-Nov-18 10:43 33.817218 -118.431044 171 3893ft 104kts
28-Nov-18 10:44 33.789537 -118.426086 168 3922ft 99kts
28-Nov-18 10:45 33.762325 -118.420083 166 3948ft 98kts
28-Nov-18 10:46 33.734358 -118.414652 173 3900ft 101kts
28-Nov-18 10:47 33.706807 -118.408922 170 3940ft 98kts
28-Nov-18 10:48 33.679229 -118.403922 171 3928ft 101kts
28-Nov-18 10:49 33.651571 -118.398157 167 3923ft 101kts
28-Nov-18 10:50 33.625326 -118.387215 140 3920ft 101kts
28-Nov-18 10:51 33.612510 -118.358742 82 3890ft 103kts
28-Nov-18 10:52 33.617441 -118.325979 80 3936ft 100kts
28-Nov-18 10:53 33.621958 -118.292909 69 3935ft 101kts
28-Nov-18 10:54 33.627029 -118.259721 80 3944ft 101kts
28-Nov-18 10:55 33.631377 -118.226451 83 3950ft 101kts
28-Nov-18 10:56 33.635958 -118.193166 83 3951ft 101kts
28-Nov-18 10:57 33.639910 -118.159631 78 3955ft 101kts
28-Nov-18 10:58 33.645187 -118.126477 74 3958ft 101kts
28-Nov-18 10:59 33.649115 -118.093300 86 3955ft 102kts
28-Nov-18 11:00 33.653987 -118.059983 78 3959ft 101kts
28-Nov-18 11:01 33.661000 -118.027358 54 3934ft 103kts
28-Nov-18 11:02 33.682816 -118.017664 336 3959ft 100kts
28-Nov-18 11:03 33.709257 -118.028932 342 3962ft 101kts
28-Nov-18 11:04 33.736263 -118.038592 343 3962ft 101kts
28-Nov-18 11:05 33.763436 -118.047935 345 3986ft 99kts
28-Nov-18 11:06 33.788400 -118.047154 60 4013ft 99kts
28-Nov-18 11:07 33.801715 -118.017608 61 3981ft 103kts
28-Nov-18 11:08 33.815360 -117.987302 61 3966ft 103kts
28-Nov-18 11:09 33.828904 -117.957060 62 3961ft 102kts
28-Nov-18 11:10 33.838696 -117.924834 71 3946ft 102kts
28-Nov-18 11:11 33.850744 -117.895737 61 3941ft 102kts
28-Nov-18 11:12 33.864232 -117.865784 61 3941ft 102kts
28-Nov-18 11:13 33.877716 -117.835840 61 3941ft 102kts
28-Nov-18 11:14 33.891197 -117.805905 61 3941ft 102kts
28-Nov-18 11:15 33.904707 -117.775907 61 3941ft 102kts
28-Nov-18 11:16 33.918243 -117.745851 61 3941ft 102kts
28-Nov-18 11:17 33.928602 -117.714325 69 3949ft 101kts
28-Nov-18 11:18 33.950606 -117.694562 24 3954ft 101kts
28-Nov-18 11:19 33.958064 -117.712938 208 3815ft 100kts
28-Nov-18 11:20 33.930446 -117.711609 188 3639ft 99kts
28-Nov-18 11:21 33.904296 -117.722249 193 3495ft 99kts
28-Nov-18 11:22 33.878285 -117.734430 205 3480ft 99kts
28-Nov-18 11:23 33.853639 -117.750996 215 3421ft 103kts
28-Nov-18 11:24 33.828216 -117.767057 201 3383ft 101kts
28-Nov-18 11:25 33.802788 -117.784872 213 3086ft 107kts
28-Nov-18 11:26 33.777493 -117.803998 210 2572ft 104kts
28-Nov-18 11:27 33.750918 -117.821645 203 1642ft 117kts
28-Nov-18 11:28 33.723477 -117.837612 210 1013ft 107kts
28-Nov-18 11:29 33.697316 -117.855210 207 425ft 108kts
28-Nov-18 11:30 33.674075 -117.869942 201 49ft 51kts
28-Nov-18 11:31 33.672337 -117.872001 305 49ft 0kts
28-Nov-18 11:32 33.672387 -117.872082 311 49ft 4kts
28-Nov-18 11:33 33.673884 -117.872131 133 49ft 0kts
28-Nov-18 11:34 33.673884 -117.872131 133 49ft 0kts
28-Nov-18 11:35 33.673884 -117.872131 133 49ft 0kts
28-Nov-18 11:41 33.673311 -117.872444 138 49ft 0kts
28-Nov-18 11:42 33.673311 -117.872444 138 49ft 0kts
28-Nov-18 11:43 33.673311 -117.872444 138 49ft 0kts

Navigation Log

Ident Type
Flight plan parsing failed, navigation log unavailable